sensor_id;sensor_type;location;lat;lon;timestamp;P1;durP1;ratioP1;P2;durP2;ratioP2
7412;SDS011;3748;48.136;11.538;2022-12-10T01:18:42;59.30;;;25.50;;
7412;SDS011;3748;48.136;11.538;2022-12-10T01:21:14;60.07;;;27.17;;
7412;SDS011;3748;48.136;11.538;2022-12-10T01:23:46;56.20;;;25.97;;
7412;SDS011;3748;48.136;11.538;2022-12-10T01:26:16;60.07;;;26.53;;
7412;SDS011;3748;48.136;11.538;2022-12-10T01:28:47;51.80;;;24.80;;
7412;SDS011;3748;48.136;11.538;2022-12-10T01:31:17;49.00;;;24.40;;
7412;SDS011;3748;48.136;11.538;2022-12-10T01:33:49;46.53;;;23.03;;
7412;SDS011;3748;48.136;11.538;2022-12-10T01:36:18;51.83;;;24.23;;
7412;SDS011;3748;48.136;11.538;2022-12-10T01:38:54;45.57;;;23.80;;
7412;SDS011;3748;48.136;11.538;2022-12-10T01:41:24;52.33;;;24.77;;
7412;SDS011;3748;48.136;11.538;2022-12-10T01:43:54;49.30;;;20.93;;
7412;SDS011;3748;48.136;11.538;2022-12-10T01:46:32;46.93;;;23.33;;
7412;SDS011;3748;48.136;11.538;2022-12-10T01:49:06;45.90;;;20.10;;
7412;SDS011;3748;48.136;11.538;2022-12-10T01:51:39;49.03;;;21.90;;
7412;SDS011;3748;48.136;11.538;2022-12-10T01:54:09;47.07;;;21.90;;
7412;SDS011;3748;48.136;11.538;2022-12-10T01:56:40;44.87;;;22.77;;
7412;SDS011;3748;48.136;11.538;2022-12-10T01:59:10;48.33;;;21.40;;
7412;SDS011;3748;48.136;11.538;2022-12-10T02:01:40;48.60;;;22.77;;
7412;SDS011;3748;48.136;11.538;2022-12-10T02:04:20;45.87;;;22.77;;
7412;SDS011;3748;48.136;11.538;2022-12-10T02:06:58;42.93;;;21.23;;
7412;SDS011;3748;48.136;11.538;2022-12-10T02:09:29;40.57;;;21.37;;
7412;SDS011;3748;48.136;11.538;2022-12-10T02:12:06;48.03;;;22.30;;
7412;SDS011;3748;48.136;11.538;2022-12-10T02:14:41;47.20;;;22.60;;
7412;SDS011;3748;48.136;11.538;2022-12-10T02:17:18;44.70;;;21.60;;
7412;SDS011;3748;48.136;11.538;2022-12-10T02:19:54;43.57;;;23.23;;
7412;SDS011;3748;48.136;11.538;2022-12-10T02:22:28;46.43;;;23.90;;
7412;SDS011;3748;48.136;11.538;2022-12-10T02:25:01;50.53;;;20.53;;
7412;SDS011;3748;48.136;11.538;2022-12-10T02:27:40;54.90;;;24.70;;
7412;SDS011;3748;48.136;11.538;2022-12-10T02:30:20;47.97;;;23.63;;
7412;SDS011;3748;48.136;11.538;2022-12-10T02:32:48;51.20;;;24.77;;
7412;SDS011;3748;48.136;11.538;2022-12-10T02:35:20;48.90;;;22.20;;
7412;SDS011;3748;48.136;11.538;2022-12-10T02:37:51;38.93;;;21.10;;
7412;SDS011;3748;48.136;11.538;2022-12-10T02:40:26;46.07;;;21.57;;
7412;SDS011;3748;48.136;11.538;2022-12-10T02:43:02;46.03;;;21.53;;
7412;SDS011;3748;48.136;11.538;2022-12-10T02:45:33;45.20;;;22.13;;
7412;SDS011;3748;48.136;11.538;2022-12-10T02:48:07;47.47;;;20.83;;
7412;SDS011;3748;48.136;11.538;2022-12-10T02:50:45;42.37;;;21.80;;
7412;SDS011;3748;48.136;11.538;2022-12-10T02:53:17;48.67;;;20.00;;
7412;SDS011;3748;48.136;11.538;2022-12-10T02:56:02;39.87;;;21.57;;
7412;SDS011;3748;48.136;11.538;2022-12-10T02:58:45;38.47;;;19.40;;
7412;SDS011;3748;48.136;11.538;2022-12-10T03:01:25;44.37;;;21.47;;
7412;SDS011;3748;48.136;11.538;2022-12-10T03:04:31;39.53;;;21.27;;
7412;SDS011;3748;48.136;11.538;2022-12-10T03:07:05;46.20;;;20.37;;
7412;SDS011;3748;48.136;11.538;2022-12-10T03:09:42;40.80;;;21.23;;
7412;SDS011;3748;48.136;11.538;2022-12-10T03:12:24;41.30;;;20.60;;
7412;SDS011;3748;48.136;11.538;2022-12-10T03:14:57;40.50;;;20.40;;
7412;SDS011;3748;48.136;11.538;2022-12-10T03:17:35;42.93;;;21.60;;
7412;SDS011;3748;48.136;11.538;2022-12-10T03:20:06;39.53;;;19.37;;
7412;SDS011;3748;48.136;11.538;2022-12-10T03:22:34;38.60;;;18.90;;
7412;SDS011;3748;48.136;11.538;2022-12-10T03:25:06;34.10;;;18.37;;
7412;SDS011;3748;48.136;11.538;2022-12-10T03:27:37;37.80;;;19.10;;
7412;SDS011;3748;48.136;11.538;2022-12-10T03:30:10;31.50;;;19.37;;
7412;SDS011;3748;48.136;11.538;2022-12-10T03:32:43;40.37;;;21.67;;
7412;SDS011;3748;48.136;11.538;2022-12-10T03:35:13;36.13;;;20.60;;
7412;SDS011;3748;48.136;11.538;2022-12-10T03:37:42;37.10;;;20.53;;
7412;SDS011;3748;48.136;11.538;2022-12-10T03:40:11;32.37;;;17.90;;
7412;SDS011;3748;48.136;11.538;2022-12-10T03:42:41;36.67;;;18.30;;
7412;SDS011;3748;48.136;11.538;2022-12-10T03:45:13;35.50;;;16.87;;
7412;SDS011;3748;48.136;11.538;2022-12-10T03:47:46;37.80;;;20.13;;
7412;SDS011;3748;48.136;11.538;2022-12-10T03:50:16;39.87;;;19.47;;
7412;SDS011;3748;48.136;11.538;2022-12-10T03:52:54;41.30;;;19.67;;
7412;SDS011;3748;48.136;11.538;2022-12-10T03:55:24;47.23;;;21.27;;
7412;SDS011;3748;48.136;11.538;2022-12-10T03:57:52;33.10;;;18.90;;
7412;SDS011;3748;48.136;11.538;2022-12-10T04:00:33;44.33;;;21.80;;
7412;SDS011;3748;48.136;11.538;2022-12-10T04:03:02;35.50;;;19.17;;
7412;SDS011;3748;48.136;11.538;2022-12-10T04:05:31;36.30;;;17.93;;
7412;SDS011;3748;48.136;11.538;2022-12-10T04:07:59;43.23;;;19.20;;
7412;SDS011;3748;48.136;11.538;2022-12-10T04:10:26;39.93;;;19.97;;
7412;SDS011;3748;48.136;11.538;2022-12-10T04:12:54;37.23;;;21.33;;
7412;SDS011;3748;48.136;11.538;2022-12-10T04:15:37;47.83;;;21.83;;
7412;SDS011;3748;48.136;11.538;2022-12-10T04:18:24;38.70;;;20.60;;
7412;SDS011;3748;48.136;11.538;2022-12-10T04:20:51;39.93;;;20.93;;
7412;SDS011;3748;48.136;11.538;2022-12-10T04:23:35;40.20;;;20.87;;
7412;SDS011;3748;48.136;11.538;2022-12-10T04:26:19;46.00;;;21.10;;
7412;SDS011;3748;48.136;11.538;2022-12-10T04:29:03;42.37;;;18.90;;
7412;SDS011;3748;48.136;11.538;2022-12-10T04:31:31;39.97;;;18.70;;
7412;SDS011;3748;48.136;11.538;2022-12-10T04:34:00;44.93;;;22.83;;
7412;SDS011;3748;48.136;11.538;2022-12-10T04:36:27;39.97;;;18.77;;
7412;SDS011;3748;48.136;11.538;2022-12-10T04:38:53;37.30;;;19.67;;
7412;SDS011;3748;48.136;11.538;2022-12-10T04:41:20;34.57;;;18.17;;
7412;SDS011;3748;48.136;11.538;2022-12-10T04:43:47;41.73;;;20.20;;
7412;SDS011;3748;48.136;11.538;2022-12-10T04:46:14;36.17;;;18.27;;
7412;SDS011;3748;48.136;11.538;2022-12-10T04:48:41;43.73;;;19.63;;
7412;SDS011;3748;48.136;11.538;2022-12-10T04:51:09;36.87;;;19.40;;
7412;SDS011;3748;48.136;11.538;2022-12-10T04:53:36;39.00;;;19.67;;
7412;SDS011;3748;48.136;11.538;2022-12-10T04:56:03;36.20;;;19.33;;
7412;SDS011;3748;48.136;11.538;2022-12-10T04:58:31;40.70;;;21.37;;
7412;SDS011;3748;48.136;11.538;2022-12-10T05:01:00;32.80;;;17.97;;
7412;SDS011;3748;48.136;11.538;2022-12-10T05:03:29;41.93;;;19.90;;
7412;SDS011;3748;48.136;11.538;2022-12-10T05:06:00;35.70;;;18.50;;
7412;SDS011;3748;48.136;11.538;2022-12-10T05:08:29;35.80;;;18.93;;
7412;SDS011;3748;48.136;11.538;2022-12-10T05:10:59;38.97;;;19.10;;
7412;SDS011;3748;48.136;11.538;2022-12-10T05:13:27;34.53;;;18.60;;
7412;SDS011;3748;48.136;11.538;2022-12-10T05:15:54;37.00;;;20.20;;
7412;SDS011;3748;48.136;11.538;2022-12-10T05:18:22;40.20;;;19.60;;
7412;SDS011;3748;48.136;11.538;2022-12-10T05:20:49;36.03;;;19.60;;
7412;SDS011;3748;48.136;11.538;2022-12-10T05:23:16;40.40;;;19.50;;
7412;SDS011;3748;48.136;11.538;2022-12-10T05:26:02;38.27;;;19.57;;
7412;SDS011;3748;48.136;11.538;2022-12-10T05:28:31;43.20;;;22.07;;
7412;SDS011;3748;48.136;11.538;2022-12-10T05:30:59;42.93;;;19.90;;
7412;SDS011;3748;48.136;11.538;2022-12-10T05:33:26;32.27;;;19.23;;
7412;SDS011;3748;48.136;11.538;2022-12-10T05:35:54;33.47;;;18.93;;
7412;SDS011;3748;48.136;11.538;2022-12-10T05:38:22;36.93;;;18.87;;
7412;SDS011;3748;48.136;11.538;2022-12-10T05:40:49;33.77;;;19.67;;
7412;SDS011;3748;48.136;11.538;2022-12-10T05:43:17;31.23;;;17.40;;
7412;SDS011;3748;48.136;11.538;2022-12-10T05:45:45;29.30;;;16.80;;
7412;SDS011;3748;48.136;11.538;2022-12-10T05:48:14;35.20;;;19.20;;
7412;SDS011;3748;48.136;11.538;2022-12-10T05:50:41;33.43;;;16.63;;
7412;SDS011;3748;48.136;11.538;2022-12-10T05:53:08;34.53;;;18.60;;
7412;SDS011;3748;48.136;11.538;2022-12-10T05:55:38;32.20;;;17.50;;
7412;SDS011;3748;48.136;11.538;2022-12-10T05:58:06;30.10;;;17.47;;
7412;SDS011;3748;48.136;11.538;2022-12-10T06:00:34;29.97;;;17.60;;
7412;SDS011;3748;48.136;11.538;2022-12-10T06:03:01;32.10;;;17.73;;
7412;SDS011;3748;48.136;11.538;2022-12-10T06:05:28;30.20;;;19.60;;
7412;SDS011;3748;48.136;11.538;2022-12-10T06:07:55;34.10;;;18.60;;
7412;SDS011;3748;48.136;11.538;2022-12-10T06:10:23;35.90;;;18.27;;
7412;SDS011;3748;48.136;11.538;2022-12-10T06:12:50;33.57;;;18.80;;
7412;SDS011;3748;48.136;11.538;2022-12-10T06:15:17;37.93;;;18.27;;
7412;SDS011;3748;48.136;11.538;2022-12-10T06:17:46;32.67;;;18.57;;
7412;SDS011;3748;48.136;11.538;2022-12-10T06:20:13;38.77;;;20.27;;
7412;SDS011;3748;48.136;11.538;2022-12-10T06:22:39;32.57;;;17.80;;
7412;SDS011;3748;48.136;11.538;2022-12-10T06:25:07;29.17;;;19.17;;
7412;SDS011;3748;48.136;11.538;2022-12-10T06:27:35;43.83;;;20.97;;
7412;SDS011;3748;48.136;11.538;2022-12-10T06:30:03;34.23;;;18.40;;
7412;SDS011;3748;48.136;11.538;2022-12-10T06:32:31;35.17;;;20.23;;
7412;SDS011;3748;48.136;11.538;2022-12-10T06:34:59;35.90;;;20.13;;
7412;SDS011;3748;48.136;11.538;2022-12-10T06:37:27;30.57;;;19.10;;
7412;SDS011;3748;48.136;11.538;2022-12-10T06:39:54;44.17;;;21.80;;
7412;SDS011;3748;48.136;11.538;2022-12-10T06:42:23;36.53;;;20.63;;
7412;SDS011;3748;48.136;11.538;2022-12-10T06:44:50;33.27;;;19.90;;
7412;SDS011;3748;48.136;11.538;2022-12-10T06:47:16;37.00;;;19.40;;
7412;SDS011;3748;48.136;11.538;2022-12-10T06:49:48;32.80;;;18.60;;
7412;SDS011;3748;48.136;11.538;2022-12-10T06:52:19;37.20;;;20.90;;
7412;SDS011;3748;48.136;11.538;2022-12-10T06:54:46;40.03;;;22.43;;
7412;SDS011;3748;48.136;11.538;2022-12-10T06:57:14;39.70;;;22.43;;
7412;SDS011;3748;48.136;11.538;2022-12-10T06:59:43;44.60;;;23.40;;
7412;SDS011;3748;48.136;11.538;2022-12-10T07:02:10;41.50;;;22.60;;
7412;SDS011;3748;48.136;11.538;2022-12-10T07:04:39;41.47;;;23.03;;
7412;SDS011;3748;48.136;11.538;2022-12-10T07:07:06;38.50;;;20.50;;
7412;SDS011;3748;48.136;11.538;2022-12-10T07:09:34;43.47;;;22.10;;
7412;SDS011;3748;48.136;11.538;2022-12-10T07:12:02;37.97;;;19.90;;
7412;SDS011;3748;48.136;11.538;2022-12-10T07:14:29;44.57;;;21.20;;
7412;SDS011;3748;48.136;11.538;2022-12-10T07:16:56;35.77;;;20.13;;
7412;SDS011;3748;48.136;11.538;2022-12-10T07:19:24;38.20;;;17.67;;
7412;SDS011;3748;48.136;11.538;2022-12-10T07:21:51;33.63;;;18.83;;
7412;SDS011;3748;48.136;11.538;2022-12-10T07:24:18;32.93;;;18.63;;
7412;SDS011;3748;48.136;11.538;2022-12-10T07:26:47;40.27;;;19.57;;
7412;SDS011;3748;48.136;11.538;2022-12-10T07:29:14;31.20;;;19.10;;
7412;SDS011;3748;48.136;11.538;2022-12-10T07:31:43;32.73;;;17.83;;
7412;SDS011;3748;48.136;11.538;2022-12-10T07:34:11;35.97;;;15.73;;
7412;SDS011;3748;48.136;11.538;2022-12-10T07:36:39;24.47;;;15.80;;
7412;SDS011;3748;48.136;11.538;2022-12-10T07:39:06;28.40;;;16.83;;
7412;SDS011;3748;48.136;11.538;2022-12-10T07:41:34;32.23;;;16.30;;
7412;SDS011;3748;48.136;11.538;2022-12-10T07:44:03;22.87;;;16.37;;
7412;SDS011;3748;48.136;11.538;2022-12-10T07:46:31;29.60;;;15.43;;
7412;SDS011;3748;48.136;11.538;2022-12-10T07:48:59;29.20;;;17.63;;
7412;SDS011;3748;48.136;11.538;2022-12-10T07:51:30;28.60;;;16.27;;
7412;SDS011;3748;48.136;11.538;2022-12-10T07:54:06;30.07;;;17.13;;
7412;SDS011;3748;48.136;11.538;2022-12-10T07:56:34;22.53;;;14.57;;
7412;SDS011;3748;48.136;11.538;2022-12-10T07:59:03;30.50;;;16.27;;
7412;SDS011;3748;48.136;11.538;2022-12-10T08:01:31;27.77;;;15.83;;
7412;SDS011;3748;48.136;11.538;2022-12-10T08:04:00;26.60;;;16.20;;
7412;SDS011;3748;48.136;11.538;2022-12-10T08:06:27;35.80;;;18.63;;
7412;SDS011;3748;48.136;11.538;2022-12-10T08:08:55;33.07;;;17.73;;
7412;SDS011;3748;48.136;11.538;2022-12-10T08:11:24;39.47;;;16.07;;
7412;SDS011;3748;48.136;11.538;2022-12-10T08:13:52;30.93;;;16.20;;
7412;SDS011;3748;48.136;11.538;2022-12-10T08:16:21;26.17;;;14.40;;
7412;SDS011;3748;48.136;11.538;2022-12-10T08:18:50;27.10;;;14.90;;
7412;SDS011;3748;48.136;11.538;2022-12-10T08:21:19;34.03;;;17.33;;
7412;SDS011;3748;48.136;11.538;2022-12-10T08:23:48;28.20;;;15.10;;
7412;SDS011;3748;48.136;11.538;2022-12-10T08:26:16;25.33;;;16.07;;
7412;SDS011;3748;48.136;11.538;2022-12-10T08:28:46;25.90;;;15.07;;
7412;SDS011;3748;48.136;11.538;2022-12-10T08:31:14;28.77;;;15.80;;
7412;SDS011;3748;48.136;11.538;2022-12-10T08:33:45;28.77;;;17.47;;
7412;SDS011;3748;48.136;11.538;2022-12-10T08:36:12;32.80;;;20.47;;
7412;SDS011;3748;48.136;11.538;2022-12-10T08:38:42;29.50;;;17.67;;
7412;SDS011;3748;48.136;11.538;2022-12-10T08:41:12;27.70;;;16.20;;
7412;SDS011;3748;48.136;11.538;2022-12-10T08:43:41;27.90;;;16.03;;
7412;SDS011;3748;48.136;11.538;2022-12-10T08:46:09;27.77;;;15.97;;
7412;SDS011;3748;48.136;11.538;2022-12-10T08:48:36;28.57;;;16.63;;
7412;SDS011;3748;48.136;11.538;2022-12-10T08:51:06;33.20;;;17.07;;
7412;SDS011;3748;48.136;11.538;2022-12-10T08:53:35;33.87;;;18.30;;
7412;SDS011;3748;48.136;11.538;2022-12-10T08:56:02;31.00;;;16.13;;
7412;SDS011;3748;48.136;11.538;2022-12-10T08:58:29;33.67;;;17.57;;
7412;SDS011;3748;48.136;11.538;2022-12-10T09:00:57;32.80;;;17.67;;
7412;SDS011;3748;48.136;11.538;2022-12-10T09:03:26;31.23;;;16.97;;
7412;SDS011;3748;48.136;11.538;2022-12-10T09:05:54;31.03;;;17.67;;
7412;SDS011;3748;48.136;11.538;2022-12-10T09:08:26;35.97;;;18.87;;
7412;SDS011;3748;48.136;11.538;2022-12-10T09:10:53;34.97;;;17.23;;
7412;SDS011;3748;48.136;11.538;2022-12-10T09:13:21;38.27;;;20.83;;
7412;SDS011;3748;48.136;11.538;2022-12-10T09:15:49;32.90;;;18.33;;
7412;SDS011;3748;48.136;11.538;2022-12-10T09:18:31;40.83;;;20.60;;
7412;SDS011;3748;48.136;11.538;2022-12-10T09:21:14;38.10;;;19.57;;
7412;SDS011;3748;48.136;11.538;2022-12-10T09:23:45;40.73;;;20.50;;
7412;SDS011;3748;48.136;11.538;2022-12-10T09:26:14;38.77;;;19.97;;
7412;SDS011;3748;48.136;11.538;2022-12-10T09:28:43;38.83;;;19.20;;
7412;SDS011;3748;48.136;11.538;2022-12-10T09:31:14;31.87;;;17.10;;
7412;SDS011;3748;48.136;11.538;2022-12-10T09:33:45;36.53;;;18.90;;
7412;SDS011;3748;48.136;11.538;2022-12-10T09:36:15;33.93;;;18.20;;
7412;SDS011;3748;48.136;11.538;2022-12-10T09:38:48;33.17;;;17.87;;
7412;SDS011;3748;48.136;11.538;2022-12-10T09:41:32;39.33;;;19.03;;
7412;SDS011;3748;48.136;11.538;2022-12-10T09:44:08;33.37;;;17.27;;
7412;SDS011;3748;48.136;11.538;2022-12-10T09:46:43;29.30;;;17.30;;
7412;SDS011;3748;48.136;11.538;2022-12-10T09:49:18;36.33;;;19.53;;
7412;SDS011;3748;48.136;11.538;2022-12-10T09:51:57;33.43;;;18.33;;
7412;SDS011;3748;48.136;11.538;2022-12-10T09:54:29;31.63;;;18.33;;
7412;SDS011;3748;48.136;11.538;2022-12-10T09:56:59;34.07;;;17.87;;
7412;SDS011;3748;48.136;11.538;2022-12-10T09:59:30;31.20;;;17.57;;
7412;SDS011;3748;48.136;11.538;2022-12-10T10:02:01;37.53;;;18.87;;
7412;SDS011;3748;48.136;11.538;2022-12-10T10:04:35;31.53;;;18.10;;
7412;SDS011;3748;48.136;11.538;2022-12-10T10:07:03;34.30;;;17.60;;
7412;SDS011;3748;48.136;11.538;2022-12-10T10:09:36;36.07;;;17.80;;
7412;SDS011;3748;48.136;11.538;2022-12-10T10:12:08;33.60;;;17.60;;
7412;SDS011;3748;48.136;11.538;2022-12-10T10:14:39;37.30;;;19.43;;
7412;SDS011;3748;48.136;11.538;2022-12-10T10:17:08;45.73;;;21.20;;
7412;SDS011;3748;48.136;11.538;2022-12-10T10:19:40;35.30;;;17.40;;
7412;SDS011;3748;48.136;11.538;2022-12-10T10:22:09;37.53;;;20.17;;
7412;SDS011;3748;48.136;11.538;2022-12-10T10:24:39;44.60;;;19.60;;
7412;SDS011;3748;48.136;11.538;2022-12-10T10:27:12;32.27;;;16.87;;
7412;SDS011;3748;48.136;11.538;2022-12-10T10:29:41;33.57;;;16.67;;
7412;SDS011;3748;48.136;11.538;2022-12-10T10:32:12;36.43;;;19.50;;
7412;SDS011;3748;48.136;11.538;2022-12-10T10:34:41;35.17;;;17.03;;
7412;SDS011;3748;48.136;11.538;2022-12-10T10:37:14;28.13;;;16.67;;
7412;SDS011;3748;48.136;11.538;2022-12-10T10:39:49;34.13;;;17.37;;
7412;SDS011;3748;48.136;11.538;2022-12-10T10:42:27;33.70;;;17.30;;
7412;SDS011;3748;48.136;11.538;2022-12-10T10:45:01;34.47;;;17.47;;
7412;SDS011;3748;48.136;11.538;2022-12-10T10:47:30;33.90;;;16.97;;
7412;SDS011;3748;48.136;11.538;2022-12-10T10:50:03;34.00;;;17.80;;
7412;SDS011;3748;48.136;11.538;2022-12-10T10:52:52;39.37;;;21.60;;
7412;SDS011;3748;48.136;11.538;2022-12-10T10:55:31;33.93;;;17.00;;
7412;SDS011;3748;48.136;11.538;2022-12-10T10:58:00;36.47;;;18.50;;
7412;SDS011;3748;48.136;11.538;2022-12-10T11:00:28;26.43;;;15.60;;
7412;SDS011;3748;48.136;11.538;2022-12-10T11:02:56;35.50;;;17.20;;
7412;SDS011;3748;48.136;11.538;2022-12-10T11:05:29;35.50;;;17.67;;
7412;SDS011;3748;48.136;11.538;2022-12-10T11:08:03;63.33;;;29.70;;
7412;SDS011;3748;48.136;11.538;2022-12-10T11:10:34;44.30;;;24.70;;
7412;SDS011;3748;48.136;11.538;2022-12-10T11:13:07;41.40;;;20.13;;
7412;SDS011;3748;48.136;11.538;2022-12-10T11:15:47;38.87;;;18.63;;
7412;SDS011;3748;48.136;11.538;2022-12-10T11:18:23;34.73;;;17.77;;
7412;SDS011;3748;48.136;11.538;2022-12-10T11:20:59;30.17;;;15.37;;
7412;SDS011;3748;48.136;11.538;2022-12-10T11:23:29;36.60;;;18.97;;
7412;SDS011;3748;48.136;11.538;2022-12-10T11:26:15;39.00;;;19.47;;
7412;SDS011;3748;48.136;11.538;2022-12-10T11:28:57;36.67;;;19.00;;
7412;SDS011;3748;48.136;11.538;2022-12-10T11:31:41;32.37;;;17.83;;
7412;SDS011;3748;48.136;11.538;2022-12-10T11:34:20;38.73;;;22.83;;
7412;SDS011;3748;48.136;11.538;2022-12-10T11:36:57;40.43;;;19.10;;
7412;SDS011;3748;48.136;11.538;2022-12-10T11:39:42;33.57;;;17.57;;
7412;SDS011;3748;48.136;11.538;2022-12-10T11:42:38;34.77;;;20.07;;
7412;SDS011;3748;48.136;11.538;2022-12-10T11:45:15;33.53;;;19.20;;
7412;SDS011;3748;48.136;11.538;2022-12-10T11:47:49;34.10;;;16.80;;
7412;SDS011;3748;48.136;11.538;2022-12-10T11:50:32;38.33;;;20.73;;
7412;SDS011;3748;48.136;11.538;2022-12-10T11:53:11;36.90;;;18.17;;
7412;SDS011;3748;48.136;11.538;2022-12-10T11:55:47;34.13;;;19.87;;
7412;SDS011;3748;48.136;11.538;2022-12-10T11:58:28;33.80;;;18.83;;
7412;SDS011;3748;48.136;11.538;2022-12-10T12:01:13;32.37;;;17.50;;
7412;SDS011;3748;48.136;11.538;2022-12-10T12:03:52;34.20;;;18.33;;
7412;SDS011;3748;48.136;11.538;2022-12-10T12:06:42;34.07;;;17.73;;
7412;SDS011;3748;48.136;11.538;2022-12-10T12:09:21;34.90;;;18.13;;
7412;SDS011;3748;48.136;11.538;2022-12-10T12:12:00;32.87;;;18.43;;
7412;SDS011;3748;48.136;11.538;2022-12-10T12:14:43;30.40;;;18.20;;
7412;SDS011;3748;48.136;11.538;2022-12-10T12:17:14;42.63;;;19.40;;
7412;SDS011;3748;48.136;11.538;2022-12-10T12:19:49;28.73;;;17.53;;
7412;SDS011;3748;48.136;11.538;2022-12-10T12:22:23;39.10;;;19.20;;
7412;SDS011;3748;48.136;11.538;2022-12-10T12:24:52;38.80;;;20.53;;
7412;SDS011;3748;48.136;11.538;2022-12-10T12:27:24;35.00;;;20.80;;
7412;SDS011;3748;48.136;11.538;2022-12-10T12:30:02;34.90;;;18.37;;
7412;SDS011;3748;48.136;11.538;2022-12-10T12:32:38;31.47;;;16.97;;
7412;SDS011;3748;48.136;11.538;2022-12-10T12:35:14;33.03;;;18.50;;
7412;SDS011;3748;48.136;11.538;2022-12-10T12:37:49;29.47;;;17.93;;
7412;SDS011;3748;48.136;11.538;2022-12-10T12:40:43;34.57;;;19.93;;
7412;SDS011;3748;48.136;11.538;2022-12-10T12:43:17;41.37;;;20.90;;
7412;SDS011;3748;48.136;11.538;2022-12-10T12:46:01;28.73;;;17.13;;
7412;SDS011;3748;48.136;11.538;2022-12-10T12:48:34;39.87;;;21.67;;
7412;SDS011;3748;48.136;11.538;2022-12-10T12:51:09;42.33;;;23.63;;
7412;SDS011;3748;48.136;11.538;2022-12-10T12:53:40;38.73;;;21.43;;
7412;SDS011;3748;48.136;11.538;2022-12-10T12:56:10;43.03;;;21.47;;
7412;SDS011;3748;48.136;11.538;2022-12-10T12:58:52;40.00;;;19.20;;
7412;SDS011;3748;48.136;11.538;2022-12-10T13:01:32;37.47;;;19.73;;
7412;SDS011;3748;48.136;11.538;2022-12-10T13:04:06;39.67;;;21.00;;
7412;SDS011;3748;48.136;11.538;2022-12-10T13:06:35;34.30;;;19.60;;
7412;SDS011;3748;48.136;11.538;2022-12-10T13:09:16;43.40;;;22.87;;
7412;SDS011;3748;48.136;11.538;2022-12-10T13:15:01;45.03;;;23.10;;
7412;SDS011;3748;48.136;11.538;2022-12-10T13:20:40;43.27;;;19.87;;
7412;SDS011;3748;48.136;11.538;2022-12-10T13:26:00;46.23;;;22.30;;
7412;SDS011;3748;48.136;11.538;2022-12-10T13:28:37;49.10;;;22.73;;
7412;SDS011;3748;48.136;11.538;2022-12-10T13:34:06;48.03;;;21.60;;
7412;SDS011;3748;48.136;11.538;2022-12-10T13:37:05;39.47;;;20.80;;
7412;SDS011;3748;48.136;11.538;2022-12-10T13:40:00;41.90;;;22.17;;
7412;SDS011;3748;48.136;11.538;2022-12-10T13:42:39;40.93;;;21.47;;
7412;SDS011;3748;48.136;11.538;2022-12-10T13:45:30;39.70;;;19.40;;
7412;SDS011;3748;48.136;11.538;2022-12-10T13:48:15;48.57;;;20.90;;
7412;SDS011;3748;48.136;11.538;2022-12-10T13:50:49;40.10;;;20.67;;
7412;SDS011;3748;48.136;11.538;2022-12-10T13:53:28;44.00;;;22.07;;
7412;SDS011;3748;48.136;11.538;2022-12-10T13:56:04;36.27;;;21.00;;
7412;SDS011;3748;48.136;11.538;2022-12-10T13:58:42;41.30;;;21.73;;
7412;SDS011;3748;48.136;11.538;2022-12-10T14:01:19;29.17;;;17.80;;
7412;SDS011;3748;48.136;11.538;2022-12-10T14:04:00;32.10;;;18.17;;
7412;SDS011;3748;48.136;11.538;2022-12-10T14:06:34;27.83;;;17.60;;
7412;SDS011;3748;48.136;11.538;2022-12-10T14:09:03;40.17;;;20.70;;
7412;SDS011;3748;48.136;11.538;2022-12-10T14:11:32;39.53;;;19.40;;
7412;SDS011;3748;48.136;11.538;2022-12-10T14:14:04;37.23;;;20.73;;
7412;SDS011;3748;48.136;11.538;2022-12-10T14:16:38;40.90;;;20.93;;
7412;SDS011;3748;48.136;11.538;2022-12-10T14:19:07;43.23;;;21.73;;
7412;SDS011;3748;48.136;11.538;2022-12-10T14:21:43;50.50;;;21.03;;
7412;SDS011;3748;48.136;11.538;2022-12-10T14:24:25;34.63;;;20.20;;
7412;SDS011;3748;48.136;11.538;2022-12-10T14:27:00;36.43;;;19.33;;
7412;SDS011;3748;48.136;11.538;2022-12-10T14:29:29;38.10;;;21.40;;
7412;SDS011;3748;48.136;11.538;2022-12-10T14:31:58;43.03;;;19.03;;
7412;SDS011;3748;48.136;11.538;2022-12-10T14:34:25;38.33;;;21.40;;
7412;SDS011;3748;48.136;11.538;2022-12-10T14:36:54;36.67;;;19.50;;
7412;SDS011;3748;48.136;11.538;2022-12-10T14:39:25;42.90;;;24.27;;
7412;SDS011;3748;48.136;11.538;2022-12-10T14:41:55;43.53;;;23.33;;
7412;SDS011;3748;48.136;11.538;2022-12-10T14:44:23;41.70;;;23.43;;
7412;SDS011;3748;48.136;11.538;2022-12-10T14:46:52;42.33;;;20.87;;
7412;SDS011;3748;48.136;11.538;2022-12-10T14:49:37;43.67;;;23.60;;
7412;SDS011;3748;48.136;11.538;2022-12-10T14:52:08;48.33;;;22.47;;
7412;SDS011;3748;48.136;11.538;2022-12-10T14:54:42;53.60;;;23.40;;
7412;SDS011;3748;48.136;11.538;2022-12-10T14:57:13;49.37;;;23.00;;
7412;SDS011;3748;48.136;11.538;2022-12-10T14:59:45;110.10;;;37.43;;
7412;SDS011;3748;48.136;11.538;2022-12-10T15:02:18;44.67;;;24.47;;
7412;SDS011;3748;48.136;11.538;2022-12-10T15:04:49;41.53;;;22.40;;
7412;SDS011;3748;48.136;11.538;2022-12-10T15:07:18;49.13;;;26.07;;
7412;SDS011;3748;48.136;11.538;2022-12-10T15:09:49;61.33;;;28.87;;
7412;SDS011;3748;48.136;11.538;2022-12-10T15:12:29;46.73;;;24.07;;
7412;SDS011;3748;48.136;11.538;2022-12-10T15:15:02;42.80;;;22.13;;
7412;SDS011;3748;48.136;11.538;2022-12-10T15:17:37;42.27;;;24.00;;
7412;SDS011;3748;48.136;11.538;2022-12-10T15:22:53;51.10;;;28.30;;
7412;SDS011;3748;48.136;11.538;2022-12-10T15:25:31;48.63;;;25.37;;
7412;SDS011;3748;48.136;11.538;2022-12-10T15:28:20;38.30;;;21.80;;
7412;SDS011;3748;48.136;11.538;2022-12-10T15:30:50;47.03;;;25.03;;
7412;SDS011;3748;48.136;11.538;2022-12-10T15:33:25;48.00;;;27.00;;
7412;SDS011;3748;48.136;11.538;2022-12-10T15:35:57;49.60;;;24.50;;
7412;SDS011;3748;48.136;11.538;2022-12-10T15:38:26;50.43;;;23.67;;
7412;SDS011;3748;48.136;11.538;2022-12-10T15:40:57;57.83;;;27.23;;
7412;SDS011;3748;48.136;11.538;2022-12-10T15:43:26;48.33;;;26.80;;
7412;SDS011;3748;48.136;11.538;2022-12-10T15:45:56;49.37;;;25.80;;
7412;SDS011;3748;48.136;11.538;2022-12-10T15:48:34;46.20;;;24.50;;
7412;SDS011;3748;48.136;11.538;2022-12-10T15:51:01;40.63;;;23.00;;
7412;SDS011;3748;48.136;11.538;2022-12-10T15:53:34;40.83;;;22.07;;
7412;SDS011;3748;48.136;11.538;2022-12-10T15:56:04;32.60;;;19.07;;
7412;SDS011;3748;48.136;11.538;2022-12-10T15:58:35;36.73;;;17.57;;
7412;SDS011;3748;48.136;11.538;2022-12-10T16:01:02;32.63;;;19.10;;
7412;SDS011;3748;48.136;11.538;2022-12-10T16:03:29;31.33;;;16.70;;
7412;SDS011;3748;48.136;11.538;2022-12-10T16:06:00;34.17;;;18.23;;
7412;SDS011;3748;48.136;11.538;2022-12-10T16:08:28;36.30;;;17.90;;
7412;SDS011;3748;48.136;11.538;2022-12-10T16:10:57;32.47;;;17.57;;
7412;SDS011;3748;48.136;11.538;2022-12-10T16:13:31;37.93;;;19.50;;
7412;SDS011;3748;48.136;11.538;2022-12-10T16:16:00;40.87;;;20.93;;
7412;SDS011;3748;48.136;11.538;2022-12-10T16:18:30;41.63;;;19.60;;
7412;SDS011;3748;48.136;11.538;2022-12-10T16:21:06;46.90;;;21.53;;
7412;SDS011;3748;48.136;11.538;2022-12-10T16:23:37;37.10;;;21.17;;
7412;SDS011;3748;48.136;11.538;2022-12-10T16:26:14;45.23;;;22.80;;
7412;SDS011;3748;48.136;11.538;2022-12-10T16:28:43;39.30;;;19.77;;
7412;SDS011;3748;48.136;11.538;2022-12-10T16:31:15;42.67;;;22.50;;
7412;SDS011;3748;48.136;11.538;2022-12-10T16:33:53;39.03;;;20.30;;
7412;SDS011;3748;48.136;11.538;2022-12-10T16:36:25;39.40;;;20.27;;